sensor_id;sensor_type;location;lat;lon;timestamp;pressure;altitude;pressure_sealevel;temperature;humidity
77120;BME280;66073;47.730;9.352;2024-01-25T00:01:37;98055.16;;;10.25;100.00
77120;BME280;66073;47.730;9.352;2024-01-25T00:04:03;98052.25;;;9.75;100.00
77120;BME280;66073;47.730;9.352;2024-01-25T00:06:28;98054.06;;;9.98;100.00
77120;BME280;66073;47.730;9.352;2024-01-25T00:08:54;98042.09;;;10.01;100.00
77120;BME280;66073;47.730;9.352;2024-01-25T00:11:19;98028.28;;;10.15;100.00
77120;BME280;66073;47.730;9.352;2024-01-25T00:13:45;98021.19;;;9.81;100.00
77120;BME280;66073;47.730;9.352;2024-01-25T00:16:10;98030.47;;;10.07;100.00
77120;BME280;66073;47.730;9.352;2024-01-25T00:18:36;98022.25;;;10.08;100.00
77120;BME280;66073;47.730;9.352;2024-01-25T00:21:01;98026.31;;;9.99;100.00
77120;BME280;66073;47.730;9.352;2024-01-25T00:23:27;98028.09;;;9.93;100.00
77120;BME280;66073;47.730;9.352;2024-01-25T00:25:52;98038.41;;;10.02;100.00
77120;BME280;66073;47.730;9.352;2024-01-25T00:28:19;98035.75;;;10.30;100.00
77120;BME280;66073;47.730;9.352;2024-01-25T00:30:44;98032.91;;;10.20;100.00
77120;BME280;66073;47.730;9.352;2024-01-25T00:33:10;98033.41;;;10.05;100.00
77120;BME280;66073;47.730;9.352;2024-01-25T00:35:35;98041.63;;;10.04;100.00
77120;BME280;66073;47.730;9.352;2024-01-25T00:38:01;98045.56;;;10.13;100.00
77120;BME280;66073;47.730;9.352;2024-01-25T00:40:27;98044.53;;;10.02;100.00
77120;BME280;66073;47.730;9.352;2024-01-25T00:42:53;98040.31;;;10.06;100.00
77120;BME280;66073;47.730;9.352;2024-01-25T00:45:24;98026.28;;;10.11;100.00
77120;BME280;66073;47.730;9.352;2024-01-25T00:47:50;98029.28;;;9.86;100.00
77120;BME280;66073;47.730;9.352;2024-01-25T00:50:17;98033.53;;;9.99;100.00
77120;BME280;66073;47.730;9.352;2024-01-25T00:52:45;98038.25;;;9.68;100.00
77120;BME280;66073;47.730;9.352;2024-01-25T00:55:11;98039.88;;;9.69;100.00
77120;BME280;66073;47.730;9.352;2024-01-25T00:57:36;98035.69;;;9.73;100.00
77120;BME280;66073;47.730;9.352;2024-01-25T01:00:02;98034.94;;;9.89;100.00
77120;BME280;66073;47.730;9.352;2024-01-25T01:02:29;98036.22;;;9.87;100.00
77120;BME280;66073;47.730;9.352;2024-01-25T01:04:59;98035.97;;;9.88;100.00
77120;BME280;66073;47.730;9.352;2024-01-25T01:07:25;98039.13;;;9.85;100.00
77120;BME280;66073;47.730;9.352;2024-01-25T01:09:51;98037.28;;;9.74;100.00
77120;BME280;66073;47.730;9.352;2024-01-25T01:12:16;98037.19;;;9.81;100.00
77120;BME280;66073;47.730;9.352;2024-01-25T01:14:43;98036.09;;;9.93;100.00
77120;BME280;66073;47.730;9.352;2024-01-25T01:17:09;98035.06;;;9.83;100.00
77120;BME280;66073;47.730;9.352;2024-01-25T01:19:34;98021.72;;;9.94;100.00
77120;BME280;66073;47.730;9.352;2024-01-25T01:21:59;98023.78;;;9.92;100.00
77120;BME280;66073;47.730;9.352;2024-01-25T01:24:25;98031.75;;;10.16;100.00
77120;BME280;66073;47.730;9.352;2024-01-25T01:26:50;98020.47;;;9.74;100.00
77120;BME280;66073;47.730;9.352;2024-01-25T01:29:17;98037.59;;;9.89;100.00
77120;BME280;66073;47.730;9.352;2024-01-25T01:31:42;98028.13;;;9.82;100.00
77120;BME280;66073;47.730;9.352;2024-01-25T01:34:08;98018.97;;;10.18;100.00
77120;BME280;66073;47.730;9.352;2024-01-25T01:36:34;98021.91;;;10.05;100.00
77120;BME280;66073;47.730;9.352;2024-01-25T01:38:59;98019.91;;;9.83;100.00
77120;BME280;66073;47.730;9.352;2024-01-25T01:41:25;98024.63;;;9.81;100.00
77120;BME280;66073;47.730;9.352;2024-01-25T01:43:54;98019.53;;;9.91;100.00
77120;BME280;66073;47.730;9.352;2024-01-25T01:46:35;98000.94;;;9.96;100.00
77120;BME280;66073;47.730;9.352;2024-01-25T01:49:03;98009.69;;;9.80;100.00
77120;BME280;66073;47.730;9.352;2024-01-25T01:51:31;98015.53;;;9.54;100.00
77120;BME280;66073;47.730;9.352;2024-01-25T01:53:57;98009.19;;;9.43;100.00
77120;BME280;66073;47.730;9.352;2024-01-25T01:56:28;98022.03;;;9.46;100.00
77120;BME280;66073;47.730;9.352;2024-01-25T01:59:00;98021.94;;;9.41;100.00
77120;BME280;66073;47.730;9.352;2024-01-25T02:01:26;98022.03;;;9.35;100.00
77120;BME280;66073;47.730;9.352;2024-01-25T02:03:52;98013.56;;;9.50;100.00
77120;BME280;66073;47.730;9.352;2024-01-25T02:06:23;98025.19;;;9.43;100.00
77120;BME280;66073;47.730;9.352;2024-01-25T02:08:49;98024.16;;;9.33;100.00
77120;BME280;66073;47.730;9.352;2024-01-25T02:11:27;98013.91;;;9.53;100.00
77120;BME280;66073;47.730;9.352;2024-01-25T02:13:53;98016.69;;;9.58;100.00
77120;BME280;66073;47.730;9.352;2024-01-25T02:16:19;98014.38;;;9.50;100.00
77120;BME280;66073;47.730;9.352;2024-01-25T02:18:45;98015.34;;;9.44;100.00
77120;BME280;66073;47.730;9.352;2024-01-25T02:21:11;98018.59;;;9.34;100.00
77120;BME280;66073;47.730;9.352;2024-01-25T02:23:37;98018.69;;;9.51;100.00
77120;BME280;66073;47.730;9.352;2024-01-25T02:26:02;98014.97;;;9.52;100.00
77120;BME280;66073;47.730;9.352;2024-01-25T02:28:28;98011.63;;;9.45;100.00
77120;BME280;66073;47.730;9.352;2024-01-25T02:30:53;98008.97;;;9.33;100.00
77120;BME280;66073;47.730;9.352;2024-01-25T02:33:19;98011.50;;;9.28;100.00
77120;BME280;66073;47.730;9.352;2024-01-25T02:35:44;98016.16;;;9.21;100.00
77120;BME280;66073;47.730;9.352;2024-01-25T02:38:10;98000.63;;;9.18;100.00
77120;BME280;66073;47.730;9.352;2024-01-25T02:40:35;98001.69;;;9.29;100.00
77120;BME280;66073;47.730;9.352;2024-01-25T02:43:01;98005.50;;;9.33;100.00
77120;BME280;66073;47.730;9.352;2024-01-25T02:45:26;98009.78;;;9.34;100.00
77120;BME280;66073;47.730;9.352;2024-01-25T02:47:52;98025.47;;;9.70;100.00
77120;BME280;66073;47.730;9.352;2024-01-25T02:50:17;98018.69;;;9.51;100.00
77120;BME280;66073;47.730;9.352;2024-01-25T02:52:43;98005.69;;;9.55;100.00
77120;BME280;66073;47.730;9.352;2024-01-25T02:55:08;97995.16;;;9.48;100.00
77120;BME280;66073;47.730;9.352;2024-01-25T02:57:34;98003.59;;;9.57;100.00
77120;BME280;66073;47.730;9.352;2024-01-25T03:00:00;97996.06;;;9.65;100.00
77120;BME280;66073;47.730;9.352;2024-01-25T03:02:25;98002.78;;;9.56;100.00
77120;BME280;66073;47.730;9.352;2024-01-25T03:04:51;98001.06;;;9.62;100.00
77120;BME280;66073;47.730;9.352;2024-01-25T03:07:16;98003.69;;;9.73;100.00
77120;BME280;66073;47.730;9.352;2024-01-25T03:09:42;97995.38;;;9.58;100.00
77120;BME280;66073;47.730;9.352;2024-01-25T03:12:07;97990.03;;;9.58;100.00
77120;BME280;66073;47.730;9.352;2024-01-25T03:14:33;97993.47;;;9.70;100.00
77120;BME280;66073;47.730;9.352;2024-01-25T03:16:58;98004.13;;;9.70;100.00
77120;BME280;66073;47.730;9.352;2024-01-25T03:19:25;98001.72;;;9.69;100.00
77120;BME280;66073;47.730;9.352;2024-01-25T03:21:54;98008.72;;;9.46;100.00
77120;BME280;66073;47.730;9.352;2024-01-25T03:24:20;98010.00;;;9.56;100.00
77120;BME280;66073;47.730;9.352;2024-01-25T03:26:46;98017.66;;;9.52;100.00
77120;BME280;66073;47.730;9.352;2024-01-25T03:29:16;98018.47;;;9.41;100.00
77120;BME280;66073;47.730;9.352;2024-01-25T03:31:41;98008.72;;;9.35;100.00
77120;BME280;66073;47.730;9.352;2024-01-25T03:34:07;98009.19;;;9.43;100.00
77120;BME280;66073;47.730;9.352;2024-01-25T03:36:32;98004.47;;;9.34;100.00
77120;BME280;66073;47.730;9.352;2024-01-25T03:38:58;98000.97;;;9.45;100.00
77120;BME280;66073;47.730;9.352;2024-01-25T03:41:24;98002.56;;;9.46;100.00
77120;BME280;66073;47.730;9.352;2024-01-25T03:43:50;98006.75;;;9.42;100.00
77120;BME280;66073;47.730;9.352;2024-01-25T03:46:17;98009.22;;;9.20;100.00
77120;BME280;66073;47.730;9.352;2024-01-25T03:48:42;98012.81;;;9.26;100.00
77120;BME280;66073;47.730;9.352;2024-01-25T03:51:08;98015.69;;;9.24;100.00
77120;BME280;66073;47.730;9.352;2024-01-25T03:53:34;98012.81;;;9.26;100.00
77120;BME280;66073;47.730;9.352;2024-01-25T03:55:59;98007.34;;;9.56;100.00
77120;BME280;66073;47.730;9.352;2024-01-25T03:58:25;98009.94;;;9.67;100.00
77120;BME280;66073;47.730;9.352;2024-01-25T04:00:50;98010.56;;;9.58;100.00
77120;BME280;66073;47.730;9.352;2024-01-25T04:03:16;98019.97;;;9.37;100.00
77120;BME280;66073;47.730;9.352;2024-01-25T04:05:41;98004.13;;;9.30;100.00
77120;BME280;66073;47.730;9.352;2024-01-25T04:08:07;98000.28;;;9.38;100.00
77120;BME280;66073;47.730;9.352;2024-01-25T04:10:33;98002.97;;;9.38;100.00
77120;BME280;66073;47.730;9.352;2024-01-25T04:12:58;98001.19;;;9.32;100.00
77120;BME280;66073;47.730;9.352;2024-01-25T04:15:26;97993.75;;;9.57;100.00
77120;BME280;66073;47.730;9.352;2024-01-25T04:17:51;97996.22;;;9.35;100.00
77120;BME280;66073;47.730;9.352;2024-01-25T04:20:18;98004.69;;;9.44;100.00
77120;BME280;66073;47.730;9.352;2024-01-25T04:22:44;98007.81;;;9.41;100.00
77120;BME280;66073;47.730;9.352;2024-01-25T04:25:10;98005.91;;;9.53;100.00
77120;BME280;66073;47.730;9.352;2024-01-25T04:27:37;98011.84;;;9.55;100.00
77120;BME280;66073;47.730;9.352;2024-01-25T04:30:05;98012.19;;;9.59;100.00
77120;BME280;66073;47.730;9.352;2024-01-25T04:32:30;98024.34;;;9.66;100.00
77120;BME280;66073;47.730;9.352;2024-01-25T04:34:56;98013.75;;;9.71;100.00
77120;BME280;66073;47.730;9.352;2024-01-25T04:37:21;98021.00;;;9.59;100.00
77120;BME280;66073;47.730;9.352;2024-01-25T04:39:48;98015.41;;;9.61;100.00
77120;BME280;66073;47.730;9.352;2024-01-25T04:42:13;98003.03;;;9.43;100.00
77120;BME280;66073;47.730;9.352;2024-01-25T04:44:38;98004.25;;;9.24;100.00
77120;BME280;66073;47.730;9.352;2024-01-25T04:47:04;98018.91;;;9.61;100.00
77120;BME280;66073;47.730;9.352;2024-01-25T04:49:29;98022.38;;;9.50;100.00
77120;BME280;66073;47.730;9.352;2024-01-25T04:51:55;98033.06;;;9.50;100.00
77120;BME280;66073;47.730;9.352;2024-01-25T04:54:20;98033.66;;;9.52;100.00
77120;BME280;66073;47.730;9.352;2024-01-25T04:56:46;98028.53;;;9.39;100.00
77120;BME280;66073;47.730;9.352;2024-01-25T04:59:11;98029.91;;;9.53;100.00
77120;BME280;66073;47.730;9.352;2024-01-25T05:01:37;98041.63;;;9.17;100.00
77120;BME280;66073;47.730;9.352;2024-01-25T05:04:02;98037.81;;;9.36;100.00
77120;BME280;66073;47.730;9.352;2024-01-25T05:06:28;98037.72;;;9.08;100.00
77120;BME280;66073;47.730;9.352;2024-01-25T05:08:54;98043.63;;;9.45;100.00
77120;BME280;66073;47.730;9.352;2024-01-25T05:11:19;98045.13;;;9.41;100.00
77120;BME280;66073;47.730;9.352;2024-01-25T05:13:45;98040.00;;;9.39;100.00
77120;BME280;66073;47.730;9.352;2024-01-25T05:16:11;98048.13;;;9.44;100.00
77120;BME280;66073;47.730;9.352;2024-01-25T05:18:37;98059.81;;;9.32;100.00
77120;BME280;66073;47.730;9.352;2024-01-25T05:21:02;98051.72;;;9.27;100.00
77120;BME280;66073;47.730;9.352;2024-01-25T05:23:28;98057.97;;;9.21;100.00
77120;BME280;66073;47.730;9.352;2024-01-25T05:25:53;98065.38;;;9.19;100.00
77120;BME280;66073;47.730;9.352;2024-01-25T05:28:19;98063.63;;;9.24;100.00
77120;BME280;66073;47.730;9.352;2024-01-25T05:30:44;98072.78;;;9.17;100.00
77120;BME280;66073;47.730;9.352;2024-01-25T05:33:10;98065.97;;;9.09;100.00
77120;BME280;66073;47.730;9.352;2024-01-25T05:35:35;98069.78;;;9.02;100.00
77120;BME280;66073;47.730;9.352;2024-01-25T05:38:01;98064.00;;;9.05;100.00
77120;BME280;66073;47.730;9.352;2024-01-25T05:40:27;98068.72;;;8.91;100.00
77120;BME280;66073;47.730;9.352;2024-01-25T05:42:52;98063.03;;;8.99;100.00
77120;BME280;66073;47.730;9.352;2024-01-25T05:45:18;98068.50;;;9.04;100.00
77120;BME280;66073;47.730;9.352;2024-01-25T05:47:45;98062.13;;;8.93;100.00
77120;BME280;66073;47.730;9.352;2024-01-25T05:50:11;98071.59;;;8.89;100.00
77120;BME280;66073;47.730;9.352;2024-01-25T05:52:36;98073.44;;;8.77;100.00
77120;BME280;66073;47.730;9.352;2024-01-25T05:55:04;98074.25;;;8.89;100.00
77120;BME280;66073;47.730;9.352;2024-01-25T05:57:29;98068.38;;;8.87;100.00
77120;BME280;66073;47.730;9.352;2024-01-25T05:59:55;98069.25;;;8.81;100.00
77120;BME280;66073;47.730;9.352;2024-01-25T06:02:20;98073.16;;;8.67;100.00
77120;BME280;66073;47.730;9.352;2024-01-25T06:04:46;98079.47;;;8.84;100.00
77120;BME280;66073;47.730;9.352;2024-01-25T06:07:11;98082.25;;;8.89;100.00
77120;BME280;66073;47.730;9.352;2024-01-25T06:09:37;98086.09;;;8.93;100.00
77120;BME280;66073;47.730;9.352;2024-01-25T06:12:02;98090.91;;;8.73;100.00
77120;BME280;66073;47.730;9.352;2024-01-25T06:14:30;98088.00;;;8.63;100.00
77120;BME280;66073;47.730;9.352;2024-01-25T06:16:55;98083.09;;;8.60;100.00
77120;BME280;66073;47.730;9.352;2024-01-25T06:19:22;98088.00;;;8.63;100.00
77120;BME280;66073;47.730;9.352;2024-01-25T06:21:47;98083.56;;;8.57;100.00
77120;BME280;66073;47.730;9.352;2024-01-25T06:24:13;98091.69;;;8.62;100.00
77120;BME280;66073;47.730;9.352;2024-01-25T06:26:38;98090.88;;;8.62;100.00
77120;BME280;66073;47.730;9.352;2024-01-25T06:29:04;98087.72;;;8.53;100.00
77120;BME280;66073;47.730;9.352;2024-01-25T06:31:29;98085.66;;;8.55;100.00
77120;BME280;66073;47.730;9.352;2024-01-25T06:33:55;98093.63;;;8.55;100.00
77120;BME280;66073;47.730;9.352;2024-01-25T06:36:20;98096.44;;;8.72;100.00
77120;BME280;66073;47.730;9.352;2024-01-25T06:38:46;98088.44;;;8.60;100.00
77120;BME280;66073;47.730;9.352;2024-01-25T06:41:11;98089.59;;;8.64;100.00
77120;BME280;66073;47.730;9.352;2024-01-25T06:43:37;98093.56;;;8.73;100.00
77120;BME280;66073;47.730;9.352;2024-01-25T06:46:03;98099.16;;;8.83;100.00
77120;BME280;66073;47.730;9.352;2024-01-25T06:48:28;98107.72;;;8.85;100.00
77120;BME280;66073;47.730;9.352;2024-01-25T06:50:54;98108.41;;;8.81;100.00
77120;BME280;66073;47.730;9.352;2024-01-25T06:53:21;98110.78;;;8.71;100.00
77120;BME280;66073;47.730;9.352;2024-01-25T06:55:46;98118.06;;;8.64;100.00
77120;BME280;66073;47.730;9.352;2024-01-25T06:58:11;98125.88;;;8.47;100.00
77120;BME280;66073;47.730;9.352;2024-01-25T07:00:38;98117.47;;;8.32;100.00
77120;BME280;66073;47.730;9.352;2024-01-25T07:03:05;98131.13;;;8.17;100.00
77120;BME280;66073;47.730;9.352;2024-01-25T07:05:30;98127.66;;;8.35;100.00
77120;BME280;66073;47.730;9.352;2024-01-25T07:07:58;98127.94;;;8.27;100.00
77120;BME280;66073;47.730;9.352;2024-01-25T07:10:24;98127.50;;;8.12;100.00
77120;BME280;66073;47.730;9.352;2024-01-25T07:12:50;98130.69;;;8.20;100.00
77120;BME280;66073;47.730;9.352;2024-01-25T07:15:16;98131.63;;;8.26;100.00
77120;BME280;66073;47.730;9.352;2024-01-25T07:17:42;98133.44;;;8.32;100.00
77120;BME280;66073;47.730;9.352;2024-01-25T07:20:07;98135.56;;;8.23;100.00
77120;BME280;66073;47.730;9.352;2024-01-25T07:22:33;98128.56;;;8.29;100.00
77120;BME280;66073;47.730;9.352;2024-01-25T07:24:58;98144.06;;;8.32;100.00
77120;BME280;66073;47.730;9.352;2024-01-25T07:27:24;98134.97;;;8.21;100.00
77120;BME280;66073;47.730;9.352;2024-01-25T07:29:49;98138.59;;;8.27;100.00
77120;BME280;66073;47.730;9.352;2024-01-25T07:32:15;98144.06;;;8.32;100.00
77120;BME280;66073;47.730;9.352;2024-01-25T07:34:40;98147.34;;;8.34;100.00
77120;BME280;66073;47.730;9.352;2024-01-25T07:37:06;98150.19;;;8.32;100.00
77120;BME280;66073;47.730;9.352;2024-01-25T07:39:31;98150.44;;;8.31;100.00
77120;BME280;66073;47.730;9.352;2024-01-25T07:41:57;98142.94;;;8.21;100.00
77120;BME280;66073;47.730;9.352;2024-01-25T07:44:22;98145.84;;;8.20;100.00
77120;BME280;66073;47.730;9.352;2024-01-25T07:46:48;98149.44;;;8.25;100.00
77120;BME280;66073;47.730;9.352;2024-01-25T07:49:13;98152.47;;;8.11;100.00
77120;BME280;66073;47.730;9.352;2024-01-25T07:51:38;98157.56;;;7.94;100.00
77120;BME280;66073;47.730;9.352;2024-01-25T07:54:04;98154.47;;;8.15;100.00
77120;BME280;66073;47.730;9.352;2024-01-25T07:56:29;98159.44;;;8.12;100.00
77120;BME280;66073;47.730;9.352;2024-01-25T07:58:55;98158.41;;;8.13;100.00
77120;BME280;66073;47.730;9.352;2024-01-25T08:01:21;98161.19;;;7.99;100.00
77120;BME280;66073;47.730;9.352;2024-01-25T08:03:46;98167.78;;;8.15;100.00
77120;BME280;66073;47.730;9.352;2024-01-25T08:06:12;98167.44;;;8.30;100.00
77120;BME280;66073;47.730;9.352;2024-01-25T08:08:37;98164.25;;;8.39;100.00
77120;BME280;66073;47.730;9.352;2024-01-25T08:11:03;98169.78;;;8.38;100.00
77120;BME280;66073;47.730;9.352;2024-01-25T08:13:29;98166.50;;;7.99;100.00
77120;BME280;66073;47.730;9.352;2024-01-25T08:15:56;98178.91;;;7.87;100.00
77120;BME280;66073;47.730;9.352;2024-01-25T08:18:21;98170.97;;;8.06;100.00
77120;BME280;66073;47.730;9.352;2024-01-25T08:20:48;98175.81;;;8.09;100.00
77120;BME280;66073;47.730;9.352;2024-01-25T08:23:14;98183.06;;;8.02;100.00
77120;BME280;66073;47.730;9.352;2024-01-25T08:25:40;98177.59;;;7.96;100.00
77120;BME280;66073;47.730;9.352;2024-01-25T08:28:06;98169.13;;;8.06;100.00
77120;BME280;66073;47.730;9.352;2024-01-25T08:30:31;98172.00;;;8.23;100.00
77120;BME280;66073;47.730;9.352;2024-01-25T08:32:58;98167.88;;;8.45;100.00
77120;BME280;66073;47.730;9.352;2024-01-25T08:35:24;98169.91;;;8.43;100.00
77120;BME280;66073;47.730;9.352;2024-01-25T08:37:50;98168.13;;;8.19;100.00
77120;BME280;66073;47.730;9.352;2024-01-25T08:40:16;98175.53;;;8.17;100.00
77120;BME280;66073;47.730;9.352;2024-01-25T08:42:41;98176.44;;;8.29;100.00
77120;BME280;66073;47.730;9.352;2024-01-25T08:45:07;98178.72;;;8.43;100.00
77120;BME280;66073;47.730;9.352;2024-01-25T08:47:37;98188.47;;;8.50;100.00
77120;BME280;66073;47.730;9.352;2024-01-25T08:50:02;98180.63;;;8.55;100.00
77120;BME280;66073;47.730;9.352;2024-01-25T08:52:29;98182.50;;;8.36;100.00
77120;BME280;66073;47.730;9.352;2024-01-25T08:54:54;98182.19;;;8.62;100.00
77120;BME280;66073;47.730;9.352;2024-01-25T08:57:20;98181.88;;;8.70;100.00
77120;BME280;66073;47.730;9.352;2024-01-25T08:59:45;98175.25;;;8.43;100.00
77120;BME280;66073;47.730;9.352;2024-01-25T09:02:11;98180.09;;;8.28;100.00
77120;BME280;66073;47.730;9.352;2024-01-25T09:04:36;98176.00;;;8.32;100.00
77120;BME280;66073;47.730;9.352;2024-01-25T09:07:02;98180.19;;;8.87;100.00
77120;BME280;66073;47.730;9.352;2024-01-25T09:09:28;98172.72;;;9.08;100.00
77120;BME280;66073;47.730;9.352;2024-01-25T09:11:54;98175.50;;;9.01;100.00
77120;BME280;66073;47.730;9.352;2024-01-25T09:14:19;98182.53;;;8.66;100.00
77120;BME280;66073;47.730;9.352;2024-01-25T09:16:45;98190.34;;;9.09;100.00
77120;BME280;66073;47.730;9.352;2024-01-25T09:19:10;98194.63;;;8.80;100.00
77120;BME280;66073;47.730;9.352;2024-01-25T09:21:38;98200.59;;;8.93;100.00
77120;BME280;66073;47.730;9.352;2024-01-25T09:24:04;98204.38;;;9.16;100.00
77120;BME280;66073;47.730;9.352;2024-01-25T09:26:30;98199.94;;;9.10;100.00
77120;BME280;66073;47.730;9.352;2024-01-25T09:28:55;98192.09;;;9.15;100.00
77120;BME280;66073;47.730;9.352;2024-01-25T09:31:21;98194.88;;;9.20;100.00
77120;BME280;66073;47.730;9.352;2024-01-25T09:33:46;98200.22;;;9.20;100.00
77120;BME280;66073;47.730;9.352;2024-01-25T09:36:12;98205.16;;;9.05;100.00
77120;BME280;66073;47.730;9.352;2024-01-25T09:38:37;98206.63;;;9.01;100.00
77120;BME280;66073;47.730;9.352;2024-01-25T09:41:03;98210.31;;;9.00;100.00
77120;BME280;66073;47.730;9.352;2024-01-25T09:43:29;98214.09;;;8.80;100.00
77120;BME280;66073;47.730;9.352;2024-01-25T09:45:55;98217.22;;;8.77;100.00
77120;BME280;66073;47.730;9.352;2024-01-25T09:48:21;98218.34;;;8.81;100.00
77120;BME280;66073;47.730;9.352;2024-01-25T09:50:47;98222.16;;;8.74;100.00
77120;BME280;66073;47.730;9.352;2024-01-25T09:53:20;98231.28;;;8.66;100.00
77120;BME280;66073;47.730;9.352;2024-01-25T09:58:23;98223.88;;;8.98;100.00
77120;BME280;66073;47.730;9.352;2024-01-25T10:00:50;98219.94;;;9.30;100.00
77120;BME280;66073;47.730;9.352;2024-01-25T10:03:16;98218.19;;;9.36;100.00
77120;BME280;66073;47.730;9.352;2024-01-25T10:05:41;98222.53;;;9.72;100.00
77120;BME280;66073;47.730;9.352;2024-01-25T10:08:12;98216.28;;;9.55;100.00
77120;BME280;66073;47.730;9.352;2024-01-25T10:10:38;98216.25;;;9.43;100.00
77120;BME280;66073;47.730;9.352;2024-01-25T10:13:04;98222.16;;;9.57;100.00
77120;BME280;66073;47.730;9.352;2024-01-25T10:15:30;98213.47;;;9.38;100.00
77120;BME280;66073;47.730;9.352;2024-01-25T10:17:56;98222.47;;;9.25;100.00
77120;BME280;66073;47.730;9.352;2024-01-25T10:20:22;98217.03;;;9.20;100.00
77120;BME280;66073;47.730;9.352;2024-01-25T10:22:49;98220.66;;;9.49;100.00
77120;BME280;66073;47.730;9.352;2024-01-25T10:25:15;98224.03;;;9.44;100.00
77120;BME280;66073;47.730;9.352;2024-01-25T10:27:40;98218.94;;;9.55;100.00
77120;BME280;66073;47.730;9.352;2024-01-25T10:30:07;98208.75;;;9.86;100.00
77120;BME280;66073;47.730;9.352;2024-01-25T10:32:35;98200.72;;;9.40;100.00
77120;BME280;66073;47.730;9.352;2024-01-25T10:35:01;98203.69;;;9.32;100.00
77120;BME280;66073;47.730;9.352;2024-01-25T10:37:28;98199.31;;;9.49;100.00
77120;BME280;66073;47.730;9.352;2024-01-25T10:39:55;98195.72;;;9.20;100.00
77120;BME280;66073;47.730;9.352;2024-01-25T10:42:21;98191.09;;;9.39;100.00
77120;BME280;66073;47.730;9.352;2024-01-25T10:44:46;98193.22;;;9.49;100.00
77120;BME280;66073;47.730;9.352;2024-01-25T10:47:12;98174.34;;;9.73;100.00
77120;BME280;66073;47.730;9.352;2024-01-25T10:49:38;98167.94;;;9.98;100.00
77120;BME280;66073;47.730;9.352;2024-01-25T10:52:05;98160.50;;;9.53;100.00
77120;BME280;66073;47.730;9.352;2024-01-25T10:54:33;98167.13;;;9.27;100.00
77120;BME280;66073;47.730;9.352;2024-01-25T10:56:58;98162.28;;;9.59;100.00
77120;BME280;66073;47.730;9.352;2024-01-25T10:59:25;98162.50;;;9.81;100.00
77120;BME280;66073;47.730;9.352;2024-01-25T11:01:51;98162.28;;;9.59;100.00
77120;BME280;66073;47.730;9.352;2024-01-25T11:04:17;98160.06;;;10.14;100.00
77120;BME280;66073;47.730;9.352;2024-01-25T11:06:46;98157.72;;;10.18;100.00
77120;BME280;66073;47.730;9.352;2024-01-25T11:09:19;98151.25;;;9.79;100.00
77120;BME280;66073;47.730;9.352;2024-01-25T11:11:49;98152.19;;;9.73;100.00
77120;BME280;66073;47.730;9.352;2024-01-25T11:14:15;98158.44;;;9.67;100.00
77120;BME280;66073;47.730;9.352;2024-01-25T11:16:43;98164.56;;;9.67;100.00
77120;BME280;66073;47.730;9.352;2024-01-25T11:19:21;98163.53;;;9.68;100.00
77120;BME280;66073;47.730;9.352;2024-01-25T11:21:51;98157.50;;;9.38;100.00
77120;BME280;66073;47.730;9.352;2024-01-25T11:24:24;98154.03;;;8.84;100.00
77120;BME280;66073;47.730;9.352;2024-01-25T11:26:54;98153.88;;;9.21;100.00
77120;BME280;66073;47.730;9.352;2024-01-25T11:29:21;98155.06;;;9.36;100.00
77120;BME280;66073;47.730;9.352;2024-01-25T11:31:50;98152.38;;;9.25;100.00
77120;BME280;66073;47.730;9.352;2024-01-25T11:34:16;98149.72;;;9.25;100.00
77120;BME280;66073;47.730;9.352;2024-01-25T11:36:44;98143.47;;;9.31;100.00
77120;BME280;66073;47.730;9.352;2024-01-25T11:39:10;98145.25;;;9.49;100.00
77120;BME280;66073;47.730;9.352;2024-01-25T11:41:36;98145.81;;;9.62;100.00
77120;BME280;66073;47.730;9.352;2024-01-25T11:44:02;98149.22;;;9.05;100.00
77120;BME280;66073;47.730;9.352;2024-01-25T11:46:30;98152.88;;;8.92;100.00
77120;BME280;66073;47.730;9.352;2024-01-25T11:48:57;98148.81;;;8.89;100.00
77120;BME280;66073;47.730;9.352;2024-01-25T11:51:22;98143.84;;;8.93;100.00
77120;BME280;66073;47.730;9.352;2024-01-25T11:53:48;98152.22;;;9.08;100.00
77120;BME280;66073;47.730;9.352;2024-01-25T11:56:21;98142.72;;;9.01;100.00
77120;BME280;66073;47.730;9.352;2024-01-25T11:58:50;98139.47;;;8.99;100.00
77120;BME280;66073;47.730;9.352;2024-01-25T12:01:18;98135.44;;;9.08;100.00
77120;BME280;66073;47.730;9.352;2024-01-25T12:03:45;98134.50;;;9.02;100.00
77120;BME280;66073;47.730;9.352;2024-01-25T12:06:12;98128.63;;;9.12;100.00
77120;BME280;66073;47.730;9.352;2024-01-25T12:08:37;98128.03;;;9.21;100.00
77120;BME280;66073;47.730;9.352;2024-01-25T12:11:12;98121.81;;;9.27;100.00
77120;BME280;66073;47.730;9.352;2024-01-25T12:13:42;98117.28;;;9.28;100.00
77120;BME280;66073;47.730;9.352;2024-01-25T12:16:10;98124.69;;;9.26;100.00
77120;BME280;66073;47.730;9.352;2024-01-25T12:18:37;98112.75;;;9.28;100.00
77120;BME280;66073;47.730;9.352;2024-01-25T12:21:03;98108.94;;;9.36;100.00
77120;BME280;66073;47.730;9.352;2024-01-25T12:23:40;98114.16;;;9.54;100.00
77120;BME280;66073;47.730;9.352;2024-01-25T12:26:08;98109.53;;;9.50;100.00
77120;BME280;66073;47.730;9.352;2024-01-25T12:28:34;98111.28;;;9.44;100.00
77120;BME280;66073;47.730;9.352;2024-01-25T12:31:05;98111.94;;;9.28;100.00
77120;BME280;66073;47.730;9.352;2024-01-25T12:33:32;98119.31;;;9.03;100.00
77120;BME280;66073;47.730;9.352;2024-01-25T12:35:57;98111.78;;;9.00;100.00
77120;BME280;66073;47.730;9.352;2024-01-25T12:38:24;98094.66;;;9.07;100.00
77120;BME280;66073;47.730;9.352;2024-01-25T12:40:52;98095.53;;;9.31;100.00
77120;BME280;66073;47.730;9.352;2024-01-25T12:43:18;98091.31;;;9.12;100.00
77120;BME280;66073;47.730;9.352;2024-01-25T12:45:44;98101.50;;;9.03;100.00
77120;BME280;66073;47.730;9.352;2024-01-25T12:48:10;98098.72;;;9.10;100.00
77120;BME280;66073;47.730;9.352;2024-01-25T12:50:36;98097.56;;;9.17;100.00
77120;BME280;66073;47.730;9.352;2024-01-25T12:53:02;98101.06;;;9.29;100.00
77120;BME280;66073;47.730;9.352;2024-01-25T12:55:29;98087.34;;;9.03;100.00
77120;BME280;66073;47.730;9.352;2024-01-25T12:57:56;98093.06;;;9.29;100.00